Time;durP1;ratioP1;P1;durP2;ratioP2;P2;SDS_P1;SDS_P2;PMS_P1;PMS_P2;Temp;Humidity;BMP_temperature;BMP_pressure;BME280_temperature;BME280_humidity;BME280_pressure;Samples;Min_cycle;Max_cycle;Signal;HPM_P1;HPM_P2
2023/05/15 00:01:30;;;;;;;16.80;8.20;;;16.90;79.00;;;;;;5099197;27;20431;-83
2023/05/15 00:03:56;;;;;;;15.13;8.45;;;16.90;79.00;;;;;;5116327;27;20075;-83
2023/05/15 00:06:22;;;;;;;18.33;8.32;;;16.90;78.90;;;;;;5133206;27;20110;-83
2023/05/15 00:08:47;;;;;;;17.17;8.77;;;16.90;78.90;;;;;;5116145;27;20383;-83
2023/05/15 00:11:13;;;;;;;17.35;8.85;;;16.80;79.10;;;;;;5133220;27;20548;-83
2023/05/15 00:13:39;;;;;;;15.05;8.05;;;16.80;79.20;;;;;;5115966;27;20051;-83
2023/05/15 00:16:08;;;;;;;18.98;9.20;;;16.70;79.40;;;;;;5098924;27;20072;-83
2023/05/15 00:18:33;;;;;;;16.88;8.82;;;16.60;79.60;;;;;;5115589;27;20544;-83
2023/05/15 00:20:59;;;;;;;18.75;8.57;;;16.70;79.80;;;;;;5098706;27;20031;-83
2023/05/15 00:23:25;;;;;;;14.52;8.27;;;16.60;79.90;;;;;;5132887;27;20027;-83
2023/05/15 00:25:51;;;;;;;15.85;8.50;;;16.60;79.90;;;;;;5098758;27;20099;-83
2023/05/15 00:28:16;;;;;;;13.52;8.15;;;16.50;80.00;;;;;;5115798;27;20031;-83
2023/05/15 00:30:42;;;;;;;16.73;9.02;;;16.50;80.20;;;;;;5098835;27;20445;-83
2023/05/15 00:33:08;;;;;;;16.45;8.57;;;16.50;80.20;;;;;;5115782;27;20494;-83
2023/05/15 00:35:33;;;;;;;17.00;9.00;;;16.50;80.30;;;;;;5115440;27;20114;-83
2023/05/15 00:37:59;;;;;;;13.70;8.13;;;16.50;80.30;;;;;;5115405;27;20134;-83
2023/05/15 00:40:26;;;;;;;16.27;8.70;;;16.40;80.40;;;;;;5132789;27;20024;-83
2023/05/15 00:42:52;;;;;;;16.20;8.15;;;16.40;80.70;;;;;;5132616;27;20559;-83
2023/05/15 00:45:20;;;;;;;14.60;7.95;;;16.40;80.90;;;;;;5134013;27;20027;-83
2023/05/15 00:47:46;;;;;;;16.55;8.23;;;16.30;81.00;;;;;;5132479;27;20075;-83
2023/05/15 00:50:13;;;;;;;16.63;7.45;;;16.30;80.90;;;;;;5133806;27;20384;-83
2023/05/15 00:52:39;;;;;;;14.95;8.50;;;16.40;80.90;;;;;;5132527;27;20479;-83
2023/05/15 00:55:05;;;;;;;12.88;7.60;;;16.30;80.90;;;;;;5098487;27;20052;-83
2023/05/15 00:57:31;;;;;;;14.77;7.47;;;16.30;81.00;;;;;;5115544;27;20058;-83
2023/05/15 00:59:59;;;;;;;12.93;7.57;;;16.30;81.00;;;;;;5132351;27;20019;-83
2023/05/15 01:02:25;;;;;;;12.98;7.35;;;16.30;81.10;;;;;;5132305;27;20023;-84
2023/05/15 01:04:51;;;;;;;16.30;7.90;;;16.20;81.20;;;;;;5133599;27;20099;-83
2023/05/15 01:07:17;;;;;;;15.00;7.60;;;16.20;81.20;;;;;;5115344;27;20361;-83
2023/05/15 01:09:43;;;;;;;13.25;7.25;;;16.20;81.10;;;;;;5115297;28;20480;-83
2023/05/15 01:12:10;;;;;;;14.10;7.55;;;16.20;81.10;;;;;;5132305;27;20023;-83
2023/05/15 01:14:36;;;;;;;16.70;7.45;;;16.20;81.00;;;;;;5132151;28;20422;-83
2023/05/15 01:17:02;;;;;;;13.43;7.43;;;16.20;81.00;;;;;;5115207;28;20078;-83
2023/05/15 01:19:28;;;;;;;12.23;7.45;;;16.10;81.00;;;;;;5132292;28;20027;-83
2023/05/15 01:22:21;;;;;;;14.07;8.32;;;16.10;81.10;;;;;;5132346;27;20385;-83
2023/05/15 01:25:04;;;;;;;15.57;8.32;;;16.10;81.30;;;;;;5133420;27;20046;-83
2023/05/15 01:27:46;;;;;;;15.57;7.90;;;16.00;81.60;;;;;;5131925;27;20156;-83
2023/05/15 01:30:21;;;;;;;16.15;8.18;;;16.00;81.80;;;;;;5132871;27;20023;-83
2023/05/15 01:33:17;;;;;;;16.20;8.25;;;15.90;82.80;;;;;;5136624;27;20019;-83
2023/05/15 01:36:04;;;;;;;14.30;7.43;;;15.90;83.00;;;;;;5136347;27;20395;-84
2023/05/15 01:38:37;;;;;;;14.80;8.38;;;15.90;82.30;;;;;;5136200;27;20090;-83
2023/05/15 01:41:21;;;;;;;18.52;8.82;;;15.90;83.30;;;;;;5137574;27;20091;-83
2023/05/15 01:43:50;;;;;;;16.80;8.70;;;15.90;82.50;;;;;;5136469;27;20039;-84
2023/05/15 01:46:20;;;;;;;16.33;8.93;;;15.80;82.60;;;;;;5137464;27;20034;-84
2023/05/15 01:48:48;;;;;;;15.63;8.50;;;15.80;82.70;;;;;;5135804;27;20031;-84
2023/05/15 01:51:15;;;;;;;16.30;8.85;;;15.80;82.70;;;;;;5118938;27;20019;-84
2023/05/15 01:53:42;;;;;;;16.23;8.63;;;15.80;82.70;;;;;;5118898;27;20039;-84
2023/05/15 01:56:12;;;;;;;18.27;9.55;;;15.80;82.80;;;;;;5137282;27;20015;-84
2023/05/15 01:58:39;;;;;;;19.45;9.13;;;15.80;82.90;;;;;;5135936;27;20063;-84
2023/05/15 02:01:06;;;;;;;19.27;9.75;;;15.80;82.90;;;;;;5118593;27;20027;-82
2023/05/15 02:03:35;;;;;;;16.42;8.75;;;15.70;83.00;;;;;;5118454;27;20031;-82
2023/05/15 02:06:03;;;;;;;16.70;9.27;;;15.70;83.10;;;;;;5102334;27;20023;-81
2023/05/15 02:08:30;;;;;;;20.17;9.82;;;15.70;83.10;;;;;;5135711;27;20593;-82
2023/05/15 02:10:58;;;;;;;17.50;9.02;;;15.70;83.10;;;;;;5135540;27;20425;-82
2023/05/15 02:13:25;;;;;;;17.10;9.00;;;15.70;83.20;;;;;;5118394;27;20027;-82
2023/05/15 02:15:51;;;;;;;15.23;8.68;;;15.70;83.20;;;;;;5135142;27;20023;-82
2023/05/15 02:18:17;;;;;;;18.63;9.43;;;15.60;83.10;;;;;;5135484;27;20030;-82
2023/05/15 02:20:43;;;;;;;16.88;8.93;;;15.60;83.00;;;;;;5135506;27;20031;-82
2023/05/15 02:23:08;;;;;;;17.70;9.90;;;15.50;82.90;;;;;;5118217;27;20127;-81
2023/05/15 02:25:58;;;;;;;18.17;9.82;;;15.40;83.00;;;;;;5101137;27;20027;-82
2023/05/15 02:28:35;;;;;;;17.35;9.32;;;15.30;83.40;;;;;;5136351;27;20027;-82
2023/05/15 02:31:10;;;;;;;20.80;10.35;;;15.30;84.50;;;;;;5135233;27;20576;-82
2023/05/15 02:33:56;;;;;;;21.05;10.63;;;15.30;83.90;;;;;;5135896;27;20341;-82
2023/05/15 02:36:28;;;;;;;19.88;10.45;;;15.20;84.10;;;;;;5134994;27;20128;-82
2023/05/15 02:38:55;;;;;;;20.88;10.65;;;15.10;84.40;;;;;;5135032;27;20102;-82
2023/05/15 02:41:22;;;;;;;24.70;11.30;;;15.10;84.40;;;;;;5135172;27;20023;-81
2023/05/15 02:43:50;;;;;;;19.15;10.13;;;15.10;84.50;;;;;;5117199;27;20396;-82
2023/05/15 02:46:20;;;;;;;21.10;11.25;;;15.10;84.60;;;;;;5135962;27;20084;-81
2023/05/15 02:48:47;;;;;;;23.48;11.57;;;15.00;84.80;;;;;;5136062;27;20026;-81
2023/05/15 02:51:13;;;;;;;24.55;11.85;;;15.00;84.90;;;;;;5117569;27;20023;-82
2023/05/15 02:53:40;;;;;;;23.17;11.85;;;15.00;84.80;;;;;;5117579;27;20019;-81
2023/05/15 02:56:06;;;;;;;23.10;11.23;;;15.00;84.80;;;;;;5134697;27;20038;-82
2023/05/15 02:58:33;;;;;;;22.67;12.15;;;15.00;84.50;;;;;;5117426;27;20109;-82
2023/05/15 03:00:58;;;;;;;21.08;11.85;;;15.00;84.30;;;;;;5134575;27;20110;-81
2023/05/15 03:03:24;;;;;;;25.13;12.55;;;15.00;84.20;;;;;;5100462;27;20110;-82
2023/05/15 03:05:50;;;;;;;20.40;11.52;;;14.90;84.10;;;;;;5100450;27;20023;-81
2023/05/15 03:08:15;;;;;;;22.75;11.95;;;14.90;84.00;;;;;;5117176;27;20031;-82
2023/05/15 03:10:41;;;;;;;19.83;10.95;;;14.90;84.00;;;;;;5100357;27;20034;-82
2023/05/15 03:13:06;;;;;;;24.80;11.88;;;14.90;83.90;;;;;;5117133;27;20406;-81
2023/05/15 03:15:32;;;;;;;23.23;12.25;;;14.80;83.70;;;;;;5117022;27;20496;-81
2023/05/15 03:17:58;;;;;;;26.52;13.25;;;14.80;83.90;;;;;;5100013;27;20030;-81
2023/05/15 03:20:23;;;;;;;26.33;13.13;;;14.80;84.20;;;;;;5117005;27;20130;-81
2023/05/15 03:22:49;;;;;;;26.80;13.90;;;14.80;84.30;;;;;;5134210;27;20451;-81
2023/05/15 03:25:15;;;;;;;26.88;14.02;;;14.70;84.50;;;;;;5117081;27;20437;-82
2023/05/15 03:27:40;;;;;;;28.85;14.95;;;14.70;84.90;;;;;;5099971;27;20025;-81
2023/05/15 03:30:07;;;;;;;31.77;15.90;;;14.70;84.90;;;;;;5134202;27;20024;-82
2023/05/15 03:32:32;;;;;;;33.95;16.58;;;14.60;85.30;;;;;;5117065;27;20031;-82
2023/05/15 03:34:58;;;;;;;32.28;16.35;;;14.60;85.50;;;;;;5116663;27;20028;-81
2023/05/15 03:37:24;;;;;;;36.08;16.75;;;14.60;85.80;;;;;;5116604;27;20134;-82
2023/05/15 03:39:49;;;;;;;37.03;17.45;;;14.60;86.00;;;;;;5116796;27;20066;-82
2023/05/15 03:42:21;;;;;;;34.47;17.27;;;14.60;86.20;;;;;;5116714;27;20459;-82
2023/05/15 03:44:46;;;;;;;35.65;17.73;;;14.60;86.20;;;;;;5117506;27;20027;-82
2023/05/15 03:47:12;;;;;;;40.05;17.30;;;14.60;86.50;;;;;;5099450;27;20042;-82
2023/05/15 03:49:38;;;;;;;38.75;17.45;;;14.60;86.60;;;;;;5116537;27;20443;-82
2023/05/15 03:52:04;;;;;;;38.42;17.50;;;14.60;86.80;;;;;;5099554;27;20019;-81
2023/05/15 03:54:29;;;;;;;37.53;16.90;;;14.60;87.20;;;;;;5115696;27;20035;-82
2023/05/15 03:56:56;;;;;;;39.78;16.83;;;14.60;87.40;;;;;;5116475;27;20023;-82
2023/05/15 03:59:21;;;;;;;40.10;17.60;;;14.60;87.50;;;;;;5116420;27;20500;-81
2023/05/15 04:01:47;;;;;;;40.88;17.55;;;14.60;87.90;;;;;;5099321;27;20104;-82
2023/05/15 04:04:13;;;;;;;35.50;16.77;;;14.60;87.90;;;;;;5099245;27;20031;-82
2023/05/15 04:06:38;;;;;;;38.65;17.05;;;14.60;87.90;;;;;;5099426;27;20035;-81
2023/05/15 04:09:04;;;;;;;41.15;17.35;;;14.60;88.00;;;;;;5133143;27;20019;-82
2023/05/15 04:11:30;;;;;;;39.80;16.42;;;14.60;88.00;;;;;;5099225;27;20023;-82
2023/05/15 04:13:56;;;;;;;39.08;17.40;;;14.60;88.00;;;;;;5132958;27;20495;-82
2023/05/15 04:16:21;;;;;;;38.60;17.45;;;14.60;88.00;;;;;;5116331;27;20035;-82
2023/05/15 04:18:47;;;;;;;39.90;17.30;;;14.60;87.90;;;;;;5133024;27;20031;-82
2023/05/15 04:21:13;;;;;;;37.63;16.70;;;14.60;87.80;;;;;;5099114;27;20023;-82
2023/05/15 04:23:40;;;;;;;36.55;16.13;;;14.60;87.70;;;;;;5132950;27;20015;-82
2023/05/15 04:26:07;;;;;;;38.47;17.05;;;14.60;87.60;;;;;;5099392;27;20031;-82
2023/05/15 04:28:33;;;;;;;33.45;16.20;;;14.60;87.60;;;;;;5132872;27;20484;-82
2023/05/15 04:30:59;;;;;;;38.05;17.08;;;14.60;87.60;;;;;;5116037;27;20499;-82
2023/05/15 04:33:24;;;;;;;36.63;17.20;;;14.60;87.60;;;;;;5115669;27;20281;-82
2023/05/15 04:35:51;;;;;;;36.15;16.42;;;14.60;87.70;;;;;;5132913;27;20019;-82
2023/05/15 04:38:17;;;;;;;42.08;17.85;;;14.60;87.60;;;;;;5098807;27;20039;-82
2023/05/15 04:40:43;;;;;;;37.03;16.05;;;14.60;87.60;;;;;;5132677;27;20059;-82
2023/05/15 04:43:08;;;;;;;35.97;16.30;;;14.60;87.60;;;;;;5132667;27;20507;-81
2023/05/15 04:45:34;;;;;;;33.70;15.35;;;14.60;87.70;;;;;;5132581;27;20035;-82
2023/05/15 04:48:00;;;;;;;41.63;16.77;;;14.60;87.70;;;;;;5132527;27;20031;-82
2023/05/15 04:50:25;;;;;;;34.42;15.52;;;14.60;87.70;;;;;;5133799;27;20019;-82
2023/05/15 04:52:51;;;;;;;34.03;16.10;;;14.60;87.50;;;;;;5115246;27;20031;-82
2023/05/15 04:55:17;;;;;;;33.88;16.23;;;14.60;87.50;;;;;;5098395;27;20016;-81
2023/05/15 04:57:42;;;;;;;41.35;17.25;;;14.60;87.70;;;;;;5115374;27;20506;-82
2023/05/15 05:00:11;;;;;;;37.30;16.63;;;14.50;88.10;;;;;;5115353;28;20035;-82
2023/05/15 05:02:42;;;;;;;38.58;16.38;;;14.50;88.40;;;;;;5132362;27;20041;-82
2023/05/15 05:05:08;;;;;;;39.75;16.42;;;14.50;88.60;;;;;;5133442;27;20469;-82
2023/05/15 05:07:34;;;;;;;31.90;15.57;;;14.50;88.50;;;;;;5133491;27;20034;-82
2023/05/15 05:10:00;;;;;;;38.85;16.48;;;14.50;88.50;;;;;;5132250;27;20543;-81
2023/05/15 05:12:25;;;;;;;36.80;17.08;;;14.50;88.50;;;;;;5115345;28;20076;-82
2023/05/15 05:14:51;;;;;;;39.47;18.10;;;14.50;88.70;;;;;;5133293;27;20027;-81
2023/05/15 05:17:17;;;;;;;39.15;18.40;;;14.50;88.80;;;;;;5098241;28;20055;-82
2023/05/15 05:19:43;;;;;;;41.90;18.33;;;14.40;89.10;;;;;;5132191;28;20528;-82
2023/05/15 05:22:09;;;;;;;42.47;18.85;;;14.40;88.90;;;;;;5098256;28;20127;-82
2023/05/15 05:24:36;;;;;;;37.55;16.92;;;14.30;88.50;;;;;;5115290;28;20130;-82
2023/05/15 05:27:05;;;;;;;41.63;17.15;;;14.30;88.30;;;;;;5115022;28;20039;-82
2023/05/15 05:29:30;;;;;;;41.50;18.00;;;14.30;87.90;;;;;;5132062;27;20046;-82
2023/05/15 05:31:56;;;;;;;41.65;17.63;;;14.30;87.80;;;;;;5132057;27;20461;-82
2023/05/15 05:34:22;;;;;;;42.40;17.17;;;14.30;87.70;;;;;;5127111;27;20039;-81
2023/05/15 05:36:48;;;;;;;36.75;17.42;;;14.30;87.70;;;;;;5131838;27;20135;-82
2023/05/15 05:39:18;;;;;;;40.33;16.30;;;14.30;87.50;;;;;;5097928;28;20031;-82
2023/05/15 05:41:44;;;;;;;35.22;16.33;;;14.30;87.20;;;;;;5133285;27;20102;-82
2023/05/15 05:44:10;;;;;;;42.33;17.40;;;14.30;86.70;;;;;;5114948;28;20112;-82
2023/05/15 05:46:35;;;;;;;38.53;17.10;;;14.30;86.70;;;;;;5114971;28;20076;-82
2023/05/15 05:49:01;;;;;;;38.47;17.70;;;14.30;86.60;;;;;;5114758;28;20484;-82
2023/05/15 05:51:27;;;;;;;36.42;16.55;;;14.30;86.50;;;;;;5132077;28;20023;-82
2023/05/15 05:53:53;;;;;;;43.25;17.90;;;14.40;86.50;;;;;;5114788;28;20084;-82
2023/05/15 05:56:20;;;;;;;38.78;16.30;;;14.30;86.30;;;;;;5133209;27;20025;-82
2023/05/15 05:58:46;;;;;;;37.85;15.98;;;14.30;86.30;;;;;;5114402;28;20075;-82
2023/05/15 06:01:12;;;;;;;42.13;17.23;;;14.40;86.60;;;;;;5114703;28;20027;-82
2023/05/15 06:03:38;;;;;;;38.85;16.48;;;14.40;86.70;;;;;;5114593;28;20058;-82
2023/05/15 06:06:04;;;;;;;38.53;16.80;;;14.50;86.80;;;;;;5131274;27;20035;-81
2023/05/15 06:08:30;;;;;;;39.80;16.52;;;14.50;86.60;;;;;;5114184;28;20500;-82
2023/05/15 06:10:55;;;;;;;36.15;15.68;;;14.60;86.80;;;;;;5130286;28;20047;-82
2023/05/15 06:13:21;;;;;;;32.35;15.60;;;14.60;86.30;;;;;;5114129;28;20492;-82
2023/05/15 06:15:47;;;;;;;36.92;16.30;;;14.60;85.90;;;;;;5096625;28;20461;-82
2023/05/15 06:18:13;;;;;;;32.70;15.90;;;14.60;85.80;;;;;;5133893;27;20027;-82
2023/05/15 06:20:41;;;;;;;30.60;14.77;;;14.60;85.60;;;;;;5117603;27;20030;-82
2023/05/15 06:23:07;;;;;;;33.83;15.75;;;14.60;85.40;;;;;;5101749;27;20100;-81
2023/05/15 06:25:33;;;;;;;33.42;15.32;;;14.60;85.30;;;;;;5135323;27;20476;-82
2023/05/15 06:27:59;;;;;;;32.40;15.52;;;14.60;85.20;;;;;;5118043;27;20063;-82
2023/05/15 06:30:24;;;;;;;34.63;15.95;;;14.70;85.50;;;;;;5118087;27;20015;-82
2023/05/15 06:32:51;;;;;;;36.05;16.70;;;14.70;85.60;;;;;;5135102;27;20020;-82
2023/05/15 06:35:17;;;;;;;32.70;16.83;;;14.60;85.50;;;;;;5117902;27;20019;-81
2023/05/15 06:37:42;;;;;;;32.22;15.63;;;14.50;85.50;;;;;;5117636;27;20047;-84
2023/05/15 06:40:08;;;;;;;30.60;15.60;;;14.50;85.40;;;;;;5117894;27;20080;-82
2023/05/15 06:42:34;;;;;;;34.90;16.63;;;14.50;85.50;;;;;;5100834;27;20038;-84
2023/05/15 06:45:00;;;;;;;32.42;15.35;;;14.50;85.60;;;;;;5100859;27;20024;-84
2023/05/15 06:47:26;;;;;;;33.45;15.82;;;14.50;85.50;;;;;;5100818;27;20031;-82
2023/05/15 06:49:55;;;;;;;30.42;15.75;;;14.60;85.80;;;;;;5100861;27;20126;-84
2023/05/15 06:52:21;;;;;;;28.23;14.85;;;14.60;85.90;;;;;;5117892;27;20024;-82
2023/05/15 06:54:47;;;;;;;34.03;15.68;;;14.70;85.10;;;;;;5134811;27;20110;-82
2023/05/15 06:57:12;;;;;;;31.92;16.95;;;14.70;84.60;;;;;;5134720;27;20502;-82
2023/05/15 06:59:38;;;;;;;30.33;16.27;;;14.80;84.40;;;;;;5100550;27;20034;-84
2023/05/15 07:02:04;;;;;;;30.08;16.50;;;14.80;84.30;;;;;;5117545;27;20039;-84
2023/05/15 07:04:30;;;;;;;35.25;17.35;;;14.80;84.30;;;;;;5117463;27;20030;-84
2023/05/15 07:06:56;;;;;;;33.42;17.08;;;14.80;84.50;;;;;;5100346;27;20555;-82
2023/05/15 07:09:22;;;;;;;37.13;18.60;;;14.80;83.70;;;;;;5134413;27;20469;-82
2023/05/15 07:11:47;;;;;;;35.47;18.90;;;14.80;83.90;;;;;;5100316;27;20034;-82
2023/05/15 07:14:13;;;;;;;38.58;19.35;;;14.70;83.70;;;;;;5117042;27;20027;-82
2023/05/15 07:16:39;;;;;;;39.03;19.83;;;14.70;83.70;;;;;;5100381;27;20023;-81
2023/05/15 07:19:07;;;;;;;36.47;18.42;;;14.70;83.70;;;;;;5100259;27;20041;-82
2023/05/15 07:21:32;;;;;;;37.00;18.95;;;14.80;84.20;;;;;;5117007;27;20023;-82
2023/05/15 07:23:58;;;;;;;41.10;20.05;;;14.90;83.80;;;;;;5099897;27;20099;-82
2023/05/15 07:26:23;;;;;;;39.63;19.50;;;14.90;83.80;;;;;;5116923;27;20027;-83
2023/05/15 07:28:49;;;;;;;37.45;19.83;;;15.00;83.90;;;;;;5133622;27;20049;-82
2023/05/15 07:31:15;;;;;;;36.83;18.83;;;15.00;83.60;;;;;;5099877;27;20027;-83
2023/05/15 07:33:40;;;;;;;38.38;19.40;;;15.10;83.10;;;;;;5117096;27;20476;-82
2023/05/15 07:36:06;;;;;;;36.78;18.30;;;15.10;82.90;;;;;;5135173;27;20384;-82
2023/05/15 07:38:32;;;;;;;32.65;16.92;;;15.20;83.00;;;;;;5099722;27;20137;-83
2023/05/15 07:40:57;;;;;;;33.38;17.95;;;15.20;82.30;;;;;;5116721;27;20035;-82
2023/05/15 07:43:23;;;;;;;30.38;17.33;;;15.20;82.50;;;;;;5116642;27;20023;-82
2023/05/15 07:45:49;;;;;;;34.08;17.55;;;15.30;82.20;;;;;;5099460;27;20039;-82
2023/05/15 07:48:16;;;;;;;30.55;17.60;;;15.40;82.20;;;;;;5099491;27;20034;-82
2023/05/15 07:50:41;;;;;;;33.92;17.83;;;15.50;81.90;;;;;;5135500;27;20023;-82
2023/05/15 07:53:07;;;;;;;33.10;17.67;;;15.40;81.20;;;;;;5116792;27;20476;-82
2023/05/15 07:55:33;;;;;;;30.05;16.77;;;15.40;81.20;;;;;;5133644;27;20467;-82
2023/05/15 07:57:59;;;;;;;33.85;17.75;;;15.50;81.00;;;;;;5116409;27;20076;-82
2023/05/15 08:00:25;;;;;;;30.45;16.10;;;15.60;80.50;;;;;;5116456;27;20023;-82
2023/05/15 08:02:50;;;;;;;30.20;16.77;;;15.70;79.70;;;;;;5133398;27;20036;-82
2023/05/15 08:05:16;;;;;;;34.90;17.50;;;15.80;79.80;;;;;;5099340;27;20054;-83
2023/05/15 08:07:42;;;;;;;28.02;15.10;;;15.90;79.20;;;;;;5116216;27;20058;-82
2023/05/15 08:10:08;;;;;;;22.67;14.07;;;16.00;79.60;;;;;;5116124;27;20038;-82
2023/05/15 08:12:34;;;;;;;26.63;14.52;;;16.00;79.90;;;;;;5116128;27;20020;-82
2023/05/15 08:14:59;;;;;;;24.75;14.35;;;16.10;80.00;;;;;;5098944;27;20034;-82
2023/05/15 08:17:25;;;;;;;23.45;13.80;;;16.10;79.80;;;;;;5133184;27;20102;-82
2023/05/15 08:19:51;;;;;;;21.38;12.43;;;16.20;78.90;;;;;;5099053;27;20027;-83
2023/05/15 08:22:17;;;;;;;18.70;12.48;;;16.20;77.00;;;;;;5115942;27;20031;-83
2023/05/15 08:24:43;;;;;;;20.48;12.13;;;16.20;76.70;;;;;;5134282;27;20038;-83
2023/05/15 08:27:09;;;;;;;21.52;12.15;;;16.20;76.50;;;;;;5115781;27;20054;-82
2023/05/15 08:29:35;;;;;;;18.73;11.48;;;16.20;76.20;;;;;;5132874;27;20072;-83
2023/05/15 08:32:02;;;;;;;20.30;11.73;;;16.20;76.30;;;;;;5132657;27;20012;-83
2023/05/15 08:34:28;;;;;;;17.45;11.52;;;16.30;76.70;;;;;;5132753;27;20080;-83
2023/05/15 08:36:55;;;;;;;19.35;11.90;;;16.30;76.60;;;;;;5098426;27;20489;-83
2023/05/15 08:39:21;;;;;;;20.15;13.30;;;16.40;76.90;;;;;;5132590;27;20031;-83
2023/05/15 08:42:09;;;;;;;19.95;12.80;;;16.30;77.40;;;;;;5131874;27;20055;-83
2023/05/15 08:44:35;;;;;;;23.58;13.55;;;16.20;77.90;;;;;;5133973;27;20035;-83
2023/05/15 08:47:02;;;;;;;24.02;13.60;;;16.20;78.10;;;;;;5132545;27;20515;-83
2023/05/15 08:49:50;;;;;;;22.13;12.52;;;16.20;77.90;;;;;;5132646;27;20015;-83
2023/05/15 08:52:16;;;;;;;22.13;13.07;;;16.30;77.80;;;;;;5132528;27;20011;-83
2023/05/15 08:54:42;;;;;;;22.98;14.25;;;16.40;77.90;;;;;;5132615;27;20106;-83
2023/05/15 08:57:08;;;;;;;23.95;13.10;;;16.40;76.60;;;;;;5132587;27;20023;-83
2023/05/15 08:59:34;;;;;;;22.48;12.90;;;16.40;76.80;;;;;;5132438;27;20387;-83
2023/05/15 09:02:01;;;;;;;24.80;13.98;;;16.40;76.70;;;;;;5132564;27;20034;-83
2023/05/15 09:04:26;;;;;;;27.55;14.75;;;16.40;76.80;;;;;;5098335;27;20467;-83
2023/05/15 09:06:53;;;;;;;23.65;14.98;;;16.40;76.40;;;;;;5115121;27;20035;-83
2023/05/15 09:09:19;;;;;;;24.63;14.40;;;16.50;76.90;;;;;;5115322;28;20046;-83
2023/05/15 09:11:47;;;;;;;22.60;13.90;;;16.60;76.80;;;;;;5132167;27;20023;-84
2023/05/15 09:14:13;;;;;;;26.88;14.18;;;16.70;76.70;;;;;;5132293;28;20444;-83
2023/05/15 09:16:38;;;;;;;23.35;13.75;;;16.80;76.00;;;;;;5132152;28;20027;-84
2023/05/15 09:19:05;;;;;;;27.55;15.00;;;16.90;75.40;;;;;;5132364;28;20031;-84
2023/05/15 09:21:32;;;;;;;25.15;14.45;;;17.00;75.50;;;;;;5133440;27;20103;-85
2023/05/15 09:24:22;;;;;;;25.52;15.70;;;17.10;75.50;;;;;;5132144;28;20023;-83
2023/05/15 09:27:06;;;;;;;28.67;15.45;;;17.10;75.50;;;;;;5132237;28;20237;-84
2023/05/15 09:29:33;;;;;;;25.63;15.35;;;17.30;76.30;;;;;;5132429;28;20023;-84
2023/05/15 09:32:07;;;;;;;25.10;15.38;;;17.40;75.20;;;;;;5115232;28;20038;-83
2023/05/15 09:34:34;;;;;;;29.08;16.50;;;17.50;74.60;;;;;;5132091;28;20027;-84
2023/05/15 09:37:02;;;;;;;26.13;15.70;;;17.60;75.50;;;;;;5131894;28;20487;-83
2023/05/15 09:39:28;;;;;;;29.92;15.50;;;17.70;75.70;;;;;;5132005;28;20058;-84
2023/05/15 09:42:04;;;;;;;30.10;17.65;;;17.90;75.20;;;;;;5097943;28;20054;-84
2023/05/15 09:44:30;;;;;;;29.65;17.83;;;18.00;74.20;;;;;;5116428;28;20476;-83
2023/05/15 09:46:56;;;;;;;28.05;17.60;;;18.10;75.30;;;;;;5114932;28;20028;-83
2023/05/15 09:49:22;;;;;;;24.98;17.00;;;18.20;74.50;;;;;;5114851;28;20503;-84
2023/05/15 09:51:49;;;;;;;25.08;15.65;;;18.20;73.10;;;;;;5097856;28;20019;-84
2023/05/15 09:54:17;;;;;;;25.10;15.85;;;18.20;72.80;;;;;;5102262;27;20023;-84
2023/05/15 09:56:46;;;;;;;26.42;16.48;;;18.20;72.70;;;;;;5118772;27;20031;-84
2023/05/15 09:59:14;;;;;;;25.65;16.25;;;18.20;72.10;;;;;;5137179;27;20476;-84
2023/05/15 10:01:45;;;;;;;25.55;16.00;;;18.30;71.40;;;;;;5135986;27;20044;-84
2023/05/15 10:04:11;;;;;;;27.63;16.45;;;18.30;72.60;;;;;;5101809;27;20027;-83
2023/05/15 10:06:55;;;;;;;29.85;17.13;;;18.30;73.10;;;;;;5136834;27;20026;-84
2023/05/15 10:09:21;;;;;;;28.70;17.83;;;18.40;73.00;;;;;;5118522;27;20160;-84
2023/05/15 10:11:52;;;;;;;28.73;17.67;;;18.40;73.50;;;;;;5118387;27;20060;-83
2023/05/15 10:14:19;;;;;;;28.25;18.15;;;18.50;72.30;;;;;;5136717;27;20495;-84
2023/05/15 10:16:45;;;;;;;28.42;16.13;;;18.60;73.50;;;;;;5135358;27;20116;-82
2023/05/15 10:19:11;;;;;;;28.75;17.23;;;18.60;73.20;;;;;;5118307;27;20050;-82
2023/05/15 10:21:38;;;;;;;28.80;17.38;;;18.60;72.50;;;;;;5136790;27;20444;-82
2023/05/15 10:24:05;;;;;;;25.65;15.88;;;18.60;73.20;;;;;;5118418;27;20039;-83
2023/05/15 10:26:41;;;;;;;25.67;14.98;;;18.50;73.00;;;;;;5135291;27;20031;-82
2023/05/15 10:29:17;;;;;;;24.30;12.63;;;18.40;70.80;;;;;;5135548;27;20035;-82
2023/05/15 10:31:44;;;;;;;20.52;11.77;;;18.30;70.50;;;;;;5135325;27;20034;-82
2023/05/15 10:34:10;;;;;;;28.92;13.77;;;18.40;71.30;;;;;;5118206;27;20502;-82
2023/05/15 10:36:37;;;;;;;23.23;14.20;;;18.50;71.30;;;;;;5118300;27;20384;-82
2023/05/15 10:39:04;;;;;;;21.10;12.88;;;18.60;71.80;;;;;;5117660;27;20130;-81
2023/05/15 10:41:34;;;;;;;20.55;12.18;;;18.70;70.40;;;;;;5135157;27;20050;-81
2023/05/15 10:44:00;;;;;;;19.92;12.43;;;18.70;70.60;;;;;;5134940;27;20022;-81
2023/05/15 10:46:33;;;;;;;23.13;13.00;;;18.70;70.50;;;;;;5135047;27;20030;-81
2023/05/15 10:49:00;;;;;;;21.88;13.05;;;18.70;69.70;;;;;;5134949;27;20075;-81
2023/05/15 10:51:28;;;;;;;25.30;14.45;;;18.70;70.90;;;;;;5134896;27;20020;-81
2023/05/15 10:53:55;;;;;;;23.85;13.27;;;18.70;71.00;;;;;;5134754;27;20540;-81
2023/05/15 10:56:32;;;;;;;23.10;13.90;;;18.70;70.70;;;;;;5117807;27;20106;-81
2023/05/15 10:59:05;;;;;;;24.70;13.82;;;18.70;71.40;;;;;;5134724;27;20075;-81
2023/05/15 11:01:33;;;;;;;26.30;14.63;;;18.70;71.20;;;;;;5136027;27;20098;-81
2023/05/15 11:04:06;;;;;;;24.67;14.82;;;18.60;72.30;;;;;;5134168;27;20494;-81
2023/05/15 11:06:32;;;;;;;24.85;15.02;;;18.60;72.40;;;;;;5134532;27;20026;-81
2023/05/15 11:09:23;;;;;;;30.30;15.13;;;18.50;72.00;;;;;;5134423;27;20021;-81
2023/05/15 11:11:55;;;;;;;25.80;15.25;;;18.50;72.20;;;;;;5135701;27;20019;-81
2023/05/15 11:14:26;;;;;;;26.85;15.73;;;18.40;73.40;;;;;;5134260;27;20072;-82
2023/05/15 11:16:52;;;;;;;23.83;14.55;;;18.40;73.90;;;;;;5134382;27;20027;-82
2023/05/15 11:19:38;;;;;;;24.67;14.73;;;18.40;73.20;;;;;;5134028;27;20034;-82
2023/05/15 11:22:07;;;;;;;23.08;14.57;;;18.40;73.80;;;;;;5133540;27;20022;-82
2023/05/15 11:24:57;;;;;;;24.20;15.02;;;18.40;73.70;;;;;;5134269;27;20031;-82
2023/05/15 11:27:32;;;;;;;24.42;13.82;;;18.40;74.40;;;;;;5134891;27;20026;-82
2023/05/15 11:30:07;;;;;;;26.02;14.88;;;18.30;74.40;;;;;;5135252;27;20046;-82
2023/05/15 11:32:58;;;;;;;26.25;14.35;;;18.30;74.60;;;;;;5135062;27;20025;-82
2023/05/15 11:35:35;;;;;;;23.83;13.55;;;18.30;74.70;;;;;;5134002;27;20102;-82
2023/05/15 11:38:02;;;;;;;25.55;13.57;;;18.30;75.10;;;;;;5135155;27;20385;-82
2023/05/15 11:40:28;;;;;;;23.60;14.40;;;18.20;75.30;;;;;;5132106;27;20116;-82
2023/05/15 11:43:06;;;;;;;25.58;14.20;;;18.20;75.50;;;;;;5132009;27;20106;-83
2023/05/15 11:45:38;;;;;;;23.23;14.02;;;18.30;75.20;;;;;;5131012;27;20031;-82
2023/05/15 11:48:07;;;;;;;23.60;13.60;;;18.20;75.00;;;;;;5132612;27;20027;-82
2023/05/15 11:50:34;;;;;;;23.13;13.65;;;18.20;76.20;;;;;;5132955;27;20050;-82
2023/05/15 11:53:07;;;;;;;23.60;14.07;;;18.20;76.50;;;;;;5133559;27;20024;-82
2023/05/15 11:55:35;;;;;;;23.40;13.57;;;18.20;76.40;;;;;;5133380;27;20080;-82
2023/05/15 11:58:02;;;;;;;23.92;14.23;;;18.10;77.00;;;;;;5133487;27;20030;-82
2023/05/15 12:00:29;;;;;;;23.73;14.48;;;18.20;77.30;;;;;;5116464;27;20361;-82
2023/05/15 12:02:54;;;;;;;23.65;13.48;;;18.20;77.10;;;;;;5134469;27;20046;-84
2023/05/15 12:05:21;;;;;;;25.52;14.90;;;18.20;76.30;;;;;;5134451;27;20074;-83
2023/05/15 12:07:47;;;;;;;24.48;13.82;;;18.10;76.30;;;;;;5132880;27;20083;-82
2023/05/15 12:10:13;;;;;;;25.38;14.23;;;18.10;76.50;;;;;;5132986;27;20016;-83
2023/05/15 12:12:41;;;;;;;23.60;14.43;;;18.10;77.20;;;;;;5131062;27;20408;-83
2023/05/15 12:15:11;;;;;;;24.08;13.73;;;18.10;76.70;;;;;;5129811;27;20012;-83
2023/05/15 12:17:40;;;;;;;25.40;14.32;;;18.00;76.70;;;;;;5116385;27;20041;-84
2023/05/15 12:20:09;;;;;;;26.42;15.23;;;18.10;77.70;;;;;;5132524;27;20492;-81
2023/05/15 12:22:38;;;;;;;27.00;16.05;;;18.00;78.10;;;;;;5116283;27;20092;-81
2023/05/15 12:25:06;;;;;;;27.70;15.27;;;18.00;78.40;;;;;;5133766;27;20019;-82
2023/05/15 12:27:33;;;;;;;26.80;14.93;;;18.00;78.20;;;;;;5132381;27;20031;-81
2023/05/15 12:30:00;;;;;;;26.67;15.05;;;18.00;78.50;;;;;;5132134;27;20023;-82
2023/05/15 12:32:26;;;;;;;28.67;15.93;;;18.00;78.50;;;;;;5098945;27;20026;-81